createdAt,value
2023-01-26T00:00:16.248Z,2.30
2023-01-26T00:02:44.789Z,2.30
2023-01-26T00:05:13.232Z,2.30
2023-01-26T00:07:45.435Z,2.20
2023-01-26T00:10:15.243Z,2.20
2023-01-26T00:12:43.839Z,2.20
2023-01-26T00:15:13.814Z,2.10
2023-01-26T00:17:46.265Z,2.10
2023-01-26T00:20:15.488Z,2.10
2023-01-26T00:22:44.404Z,2.30
2023-01-26T00:25:13.109Z,2.50
2023-01-26T00:27:41.415Z,2.10
2023-01-26T00:30:14.334Z,2.10
2023-01-26T00:32:42.842Z,2.00
2023-01-26T00:35:12.775Z,2.00
2023-01-26T00:37:44.365Z,2.50
2023-01-26T00:40:17.569Z,1.90
2023-01-26T00:42:49.684Z,1.90
2023-01-26T00:45:20.168Z,1.90
2023-01-26T00:47:52.511Z,1.80
2023-01-26T00:50:23.064Z,1.90
2023-01-26T00:52:51.671Z,1.80
2023-01-26T00:55:20.481Z,1.80
2023-01-26T00:57:52.194Z,1.90
2023-01-26T01:00:22.923Z,1.80
2023-01-26T01:02:51.966Z,1.80
2023-01-26T01:05:20.594Z,1.80
2023-01-26T01:07:49.590Z,1.90
2023-01-26T01:10:18.560Z,1.90
2023-01-26T01:12:47.212Z,1.90
2023-01-26T01:15:15.817Z,2.10
2023-01-26T01:17:45.756Z,2.00
2023-01-26T01:20:15.116Z,1.90
2023-01-26T01:22:44.387Z,2.00
2023-01-26T01:25:13.254Z,1.90
2023-01-26T01:27:42.011Z,1.80
2023-01-26T01:30:13.442Z,1.80
2023-01-26T01:32:42.131Z,1.80
2023-01-26T01:35:12.929Z,1.80
2023-01-26T01:37:41.488Z,1.80
2023-01-26T01:40:14.659Z,1.70
2023-01-26T01:42:49.523Z,1.70
2023-01-26T01:45:47.443Z,1.70
2023-01-26T01:48:26.332Z,1.60
2023-01-26T01:51:01.290Z,1.60
2023-01-26T01:53:35.288Z,1.70
2023-01-26T01:56:09.511Z,1.70
2023-01-26T01:58:44.206Z,1.70
2023-01-26T02:01:15.641Z,1.70
2023-01-26T02:03:49.415Z,1.70
2023-01-26T02:06:27.877Z,1.70
2023-01-26T02:09:00.164Z,1.70
2023-01-26T02:11:36.110Z,1.70
2023-01-26T02:14:10.453Z,1.60
2023-01-26T02:16:39.989Z,1.60
2023-01-26T02:19:22.097Z,1.60
2023-01-26T02:22:00.491Z,1.60
2023-01-26T02:24:37.102Z,1.60
2023-01-26T02:27:08.424Z,1.50
2023-01-26T02:29:38.365Z,1.40
2023-01-26T02:32:07.664Z,1.50
2023-01-26T02:34:37.168Z,2.20
2023-01-26T02:37:05.667Z,1.50
2023-01-26T02:39:49.842Z,1.40
2023-01-26T02:42:38.419Z,1.40
2023-01-26T02:45:09.146Z,1.40
2023-01-26T02:47:38.072Z,1.40
2023-01-26T02:50:07.029Z,1.30
2023-01-26T02:52:35.579Z,1.40
2023-01-26T02:55:23.203Z,1.90
2023-01-26T02:57:55.597Z,1.30
2023-01-26T03:00:29.402Z,1.30
2023-01-26T03:03:01.370Z,1.40
2023-01-26T03:05:31.304Z,1.40
2023-01-26T03:08:01.266Z,1.30
2023-01-26T03:10:36.410Z,1.30
2023-01-26T03:13:06.347Z,1.30
2023-01-26T03:15:44.088Z,1.50
2023-01-26T03:18:34.419Z,1.50
2023-01-26T03:21:37.280Z,1.40
2023-01-26T03:24:26.969Z,1.40
2023-01-26T03:27:14.708Z,1.50
2023-01-26T03:29:44.959Z,1.50
2023-01-26T03:32:15.098Z,1.50
2023-01-26T03:34:45.152Z,1.40
2023-01-26T03:37:13.872Z,1.40
2023-01-26T03:40:13.930Z,1.30
2023-01-26T03:43:00.887Z,1.30
2023-01-26T03:45:49.884Z,1.30
2023-01-26T03:48:37.511Z,1.30
2023-01-26T03:51:24.819Z,1.30
2023-01-26T03:54:11.521Z,1.20
2023-01-26T03:56:41.606Z,1.30
2023-01-26T03:59:16.006Z,1.40
2023-01-26T04:02:06.692Z,1.40
2023-01-26T04:04:54.959Z,1.40
2023-01-26T04:07:45.536Z,1.50
2023-01-26T04:10:14.706Z,1.50
2023-01-26T04:12:44.059Z,1.50
2023-01-26T04:15:34.200Z,1.50
2023-01-26T04:18:26.829Z,1.50
2023-01-26T04:21:13.817Z,1.50
2023-01-26T04:23:44.643Z,1.50
2023-01-26T04:26:12.929Z,1.60
2023-01-26T04:28:41.524Z,2.20
2023-01-26T04:31:10.715Z,1.70
2023-01-26T04:33:42.052Z,1.40
2023-01-26T04:36:12.342Z,1.50
2023-01-26T04:38:45.989Z,1.60
2023-01-26T04:41:18.830Z,1.60
2023-01-26T04:43:52.604Z,1.50
2023-01-26T04:46:22.681Z,1.50
2023-01-26T04:48:53.188Z,1.50
2023-01-26T04:51:23.596Z,1.50
2023-01-26T04:53:52.973Z,1.40
2023-01-26T04:56:27.125Z,1.40
2023-01-26T04:58:57.651Z,1.50
2023-01-26T05:01:26.296Z,1.40
2023-01-26T05:03:57.154Z,1.40
2023-01-26T05:06:25.484Z,1.20
2023-01-26T05:08:54.580Z,1.30
2023-01-26T05:11:25.710Z,1.30
2023-01-26T05:14:12.934Z,1.30
2023-01-26T05:16:57.209Z,1.30
2023-01-26T05:19:34.470Z,1.30
2023-01-26T05:22:35.050Z,1.40
2023-01-26T05:25:30.053Z,1.30
2023-01-26T05:28:06.433Z,1.30
2023-01-26T05:30:36.639Z,1.40
2023-01-26T05:33:14.302Z,1.30
2023-01-26T05:35:45.514Z,1.30
2023-01-26T05:38:16.440Z,1.30
2023-01-26T05:40:49.020Z,1.20
2023-01-26T05:43:18.643Z,1.20
2023-01-26T05:46:13.301Z,1.20
2023-01-26T05:48:44.301Z,1.20
2023-01-26T05:51:16.365Z,1.20
2023-01-26T05:53:45.719Z,1.20
2023-01-26T05:56:15.547Z,1.20
2023-01-26T05:58:49.305Z,1.20
2023-01-26T06:01:18.638Z,1.20
2023-01-26T06:03:53.562Z,1.20
2023-01-26T06:06:23.740Z,1.30
2023-01-26T06:09:15.266Z,1.30
2023-01-26T06:12:02.712Z,1.20
2023-01-26T06:14:53.346Z,1.30
2023-01-26T06:17:21.836Z,1.20
2023-01-26T06:19:56.666Z,1.20
2023-01-26T06:22:29.191Z,1.30
2023-01-26T06:25:00.425Z,1.30
2023-01-26T06:27:28.779Z,1.30
2023-01-26T06:29:57.874Z,1.30
2023-01-26T06:32:28.247Z,1.30
2023-01-26T06:34:57.482Z,1.30
2023-01-26T06:37:28.559Z,1.30
2023-01-26T06:39:57.326Z,1.30
2023-01-26T06:42:26.131Z,1.30
2023-01-26T06:44:54.464Z,1.30
2023-01-26T06:47:23.999Z,1.50
2023-01-26T06:49:53.668Z,1.30
2023-01-26T06:52:32.634Z,1.30
2023-01-26T06:55:23.708Z,1.30
2023-01-26T06:58:16.456Z,1.30
2023-01-26T07:00:59.140Z,1.30
2023-01-26T07:03:36.022Z,1.30
2023-01-26T07:06:06.064Z,1.30
2023-01-26T07:08:37.243Z,1.30
2023-01-26T07:11:08.899Z,1.30
2023-01-26T07:13:38.106Z,1.30
2023-01-26T07:16:09.913Z,1.30
2023-01-26T07:18:38.469Z,1.30
2023-01-26T07:21:11.499Z,1.30
2023-01-26T07:23:45.022Z,1.30
2023-01-26T07:26:16.614Z,1.40
2023-01-26T07:28:46.810Z,1.40
2023-01-26T07:31:16.999Z,1.50
2023-01-26T07:33:47.956Z,1.60
2023-01-26T07:36:16.598Z,1.50
2023-01-26T07:38:47.225Z,1.50
2023-01-26T07:41:16.492Z,1.50
2023-01-26T07:43:45.282Z,1.50
2023-01-26T07:46:13.712Z,1.40
2023-01-26T07:48:41.917Z,1.90
2023-01-26T07:51:11.643Z,1.40
2023-01-26T07:53:42.680Z,1.40
2023-01-26T07:56:16.067Z,1.40
2023-01-26T07:58:45.216Z,2.20
2023-01-26T08:01:15.926Z,1.60
2023-01-26T08:03:46.536Z,1.60
2023-01-26T08:06:15.772Z,1.60
2023-01-26T08:08:44.614Z,1.60
2023-01-26T08:11:14.318Z,1.50
2023-01-26T08:13:45.518Z,1.60
2023-01-26T08:16:14.242Z,1.50
2023-01-26T08:18:45.360Z,1.50
2023-01-26T08:21:17.729Z,1.60
2023-01-26T08:23:49.856Z,1.60
2023-01-26T08:26:22.728Z,1.60
2023-01-26T08:28:51.078Z,1.60
2023-01-26T08:31:23.288Z,1.60
2023-01-26T08:33:54.412Z,1.50
2023-01-26T08:36:26.420Z,1.50
2023-01-26T08:38:57.584Z,1.60
2023-01-26T08:41:33.850Z,1.60
2023-01-26T08:44:02.990Z,1.70
2023-01-26T08:46:32.060Z,1.60
2023-01-26T08:49:00.646Z,1.60
2023-01-26T08:51:31.289Z,1.50
2023-01-26T08:53:59.459Z,1.50
2023-01-26T08:56:30.006Z,1.50
2023-01-26T08:58:58.888Z,1.40
2023-01-26T09:01:27.272Z,1.40
2023-01-26T09:03:56.579Z,1.40
2023-01-26T09:06:25.235Z,1.40
2023-01-26T09:08:53.953Z,1.30
2023-01-26T09:11:22.655Z,1.30
2023-01-26T09:13:59.451Z,1.30
2023-01-26T09:16:27.832Z,1.40
2023-01-26T09:18:56.792Z,1.40
2023-01-26T09:21:25.469Z,1.90
2023-01-26T09:23:54.209Z,1.40
2023-01-26T09:26:23.907Z,1.40
2023-01-26T09:28:54.880Z,1.50
2023-01-26T09:31:23.460Z,1.50
2023-01-26T09:33:53.705Z,1.50
2023-01-26T09:36:22.044Z,1.50
2023-01-26T09:38:51.417Z,1.50
2023-01-26T09:41:44.409Z,1.70
2023-01-26T09:44:22.615Z,1.60
2023-01-26T09:47:07.359Z,1.70
2023-01-26T09:49:50.342Z,1.70
2023-01-26T09:52:28.569Z,1.70
2023-01-26T09:55:01.624Z,1.60
2023-01-26T09:57:39.230Z,1.50
2023-01-26T10:00:18.597Z,1.60
2023-01-26T10:03:04.952Z,1.50
2023-01-26T10:05:45.694Z,1.50
2023-01-26T10:08:17.950Z,1.60
2023-01-26T10:10:51.485Z,1.50
2023-01-26T10:13:23.783Z,1.50
2023-01-26T10:16:02.994Z,1.60
2023-01-26T10:18:38.573Z,1.60
2023-01-26T10:21:11.181Z,1.60
2023-01-26T10:23:49.597Z,1.50
2023-01-26T10:26:21.525Z,1.50
2023-01-26T10:28:52.410Z,1.40
2023-01-26T10:31:26.211Z,1.80
2023-01-26T10:33:57.958Z,1.50
2023-01-26T10:36:30.358Z,1.50
2023-01-26T10:39:06.680Z,1.40
2023-01-26T10:41:37.578Z,1.40
2023-01-26T10:44:33.725Z,1.40
2023-01-26T10:47:21.738Z,1.50
2023-01-26T10:49:51.777Z,1.50
2023-01-26T10:52:23.898Z,1.50
2023-01-26T10:55:12.782Z,1.80
2023-01-26T10:57:43.940Z,1.50
2023-01-26T11:00:28.687Z,1.40
2023-01-26T11:03:19.521Z,1.50
2023-01-26T11:06:07.522Z,1.50
2023-01-26T11:08:40.852Z,1.50
2023-01-26T11:11:27.205Z,1.50
2023-01-26T11:14:16.144Z,2.20
2023-01-26T11:16:52.621Z,1.40
2023-01-26T11:19:46.294Z,1.40
2023-01-26T11:22:22.347Z,1.50
2023-01-26T11:25:05.409Z,1.60
2023-01-26T11:27:52.951Z,1.60
2023-01-26T11:30:57.415Z,1.50
2023-01-26T11:33:40.185Z,1.50
2023-01-26T11:36:22.400Z,1.50
2023-01-26T11:39:08.616Z,1.50
2023-01-26T11:41:58.246Z,1.40
2023-01-26T11:44:53.715Z,1.40
2023-01-26T11:47:53.948Z,1.50
2023-01-26T11:50:35.438Z,1.50
2023-01-26T11:53:36.120Z,1.50
2023-01-26T11:56:27.464Z,1.50
2023-01-26T11:59:02.927Z,1.50
2023-01-26T12:01:40.737Z,1.60
2023-01-26T12:04:19.840Z,1.60
2023-01-26T12:06:55.847Z,2.30
2023-01-26T12:09:37.101Z,1.50
2023-01-26T12:12:14.348Z,1.60
2023-01-26T12:14:51.868Z,1.60
2023-01-26T12:17:36.175Z,1.70
2023-01-26T12:20:27.387Z,1.70
2023-01-26T12:23:04.747Z,1.60
2023-01-26T12:25:37.862Z,1.70
2023-01-26T12:28:18.458Z,1.70
2023-01-26T12:30:58.764Z,1.60
2023-01-26T12:33:27.783Z,1.70
2023-01-26T12:36:26.438Z,2.20
2023-01-26T12:39:13.413Z,1.60
2023-01-26T12:42:03.305Z,1.60
2023-01-26T12:44:40.360Z,1.70
2023-01-26T12:47:20.394Z,1.80
2023-01-26T12:49:59.214Z,1.80
2023-01-26T12:52:35.518Z,1.90
2023-01-26T12:55:17.229Z,1.90
2023-01-26T12:57:54.725Z,1.80
2023-01-26T13:00:29.864Z,1.80
2023-01-26T13:03:04.378Z,2.00
2023-01-26T13:05:35.958Z,1.90
2023-01-26T13:08:51.912Z,1.90
2023-01-26T13:11:51.205Z,1.90
2023-01-26T13:14:38.308Z,1.90
2023-01-26T13:17:51.647Z,1.90
2023-01-26T13:20:44.047Z,1.80
2023-01-26T13:23:43.075Z,1.70
2023-01-26T13:26:21.117Z,1.70
2023-01-26T13:28:51.666Z,1.50
2023-01-26T13:31:36.832Z,1.50
2023-01-26T13:34:11.268Z,1.40
2023-01-26T13:36:47.888Z,1.40
2023-01-26T13:39:33.068Z,1.40
2023-01-26T13:42:01.510Z,1.50
2023-01-26T13:44:41.711Z,1.40
2023-01-26T13:47:21.169Z,1.40
2023-01-26T13:49:50.532Z,1.50
2023-01-26T13:52:23.301Z,1.40
2023-01-26T13:54:57.698Z,1.40
2023-01-26T13:57:29.230Z,1.40
2023-01-26T14:00:00.702Z,1.30
2023-01-26T14:02:33.838Z,1.40
2023-01-26T14:05:03.732Z,1.40
2023-01-26T14:07:39.148Z,1.40
2023-01-26T14:10:16.406Z,1.40
2023-01-26T14:12:51.946Z,1.40
2023-01-26T14:15:26.766Z,1.40
2023-01-26T14:18:02.013Z,1.50
2023-01-26T14:20:33.211Z,1.50
2023-01-26T14:23:14.974Z,1.50
2023-01-26T14:25:49.822Z,1.60
2023-01-26T14:28:31.530Z,1.90
2023-01-26T14:31:09.715Z,1.70
2023-01-26T14:33:40.095Z,1.60
2023-01-26T14:36:19.464Z,1.60
2023-01-26T14:38:51.720Z,1.70
2023-01-26T14:41:25.094Z,1.60
2023-01-26T14:43:58.610Z,1.70
2023-01-26T14:46:37.047Z,1.70
2023-01-26T14:49:14.864Z,1.50
2023-01-26T14:51:48.114Z,1.50
2023-01-26T14:54:26.490Z,1.50
2023-01-26T14:56:55.244Z,1.50
2023-01-26T14:59:34.048Z,1.50
2023-01-26T15:02:22.737Z,1.50
2023-01-26T15:05:01.616Z,1.60
2023-01-26T15:07:37.233Z,1.40
2023-01-26T15:10:32.313Z,1.40
2023-01-26T15:13:05.200Z,1.40
2023-01-26T15:15:40.100Z,1.40
2023-01-26T15:18:21.691Z,1.40
2023-01-26T15:21:01.975Z,1.40
2023-01-26T15:23:33.211Z,1.40
2023-01-26T15:26:10.185Z,1.30
2023-01-26T15:28:40.212Z,1.30
2023-01-26T15:31:21.596Z,1.30
2023-01-26T15:33:54.062Z,1.30
2023-01-26T15:36:51.241Z,1.30
2023-01-26T15:39:22.575Z,1.30
2023-01-26T15:42:14.400Z,1.30
2023-01-26T15:44:43.429Z,1.30
2023-01-26T15:47:13.930Z,1.30
2023-01-26T15:49:43.020Z,1.30
2023-01-26T15:52:17.359Z,1.30
2023-01-26T15:54:46.602Z,1.30
2023-01-26T15:57:15.111Z,1.20
2023-01-26T15:59:43.740Z,1.20
2023-01-26T16:02:16.964Z,1.20
2023-01-26T16:04:46.735Z,1.10
2023-01-26T16:07:19.588Z,1.10
2023-01-26T16:09:49.104Z,1.00
2023-01-26T16:12:35.751Z,1.00
2023-01-26T16:15:19.697Z,0.90
2023-01-26T16:17:48.162Z,0.90
2023-01-26T16:20:16.899Z,1.00
2023-01-26T16:22:46.611Z,1.00
2023-01-26T16:25:26.003Z,1.00
2023-01-26T16:27:56.521Z,1.00
2023-01-26T16:30:27.733Z,0.90
2023-01-26T16:32:56.642Z,0.90
2023-01-26T16:35:29.547Z,0.90
2023-01-26T16:38:02.031Z,0.90
2023-01-26T16:40:31.273Z,1.10
2023-01-26T16:42:59.504Z,1.00
2023-01-26T16:45:28.311Z,1.00
2023-01-26T16:47:59.929Z,0.90
2023-01-26T16:50:31.330Z,1.00
2023-01-26T16:53:13.996Z,1.00
2023-01-26T16:55:42.607Z,0.90
2023-01-26T16:58:14.613Z,0.90
2023-01-26T17:00:43.767Z,0.80
2023-01-26T17:03:13.255Z,0.90
2023-01-26T17:05:43.924Z,0.80
2023-01-26T17:08:16.244Z,0.80
2023-01-26T17:11:00.633Z,0.70
2023-01-26T17:13:30.095Z,0.70
2023-01-26T17:15:59.124Z,0.70
2023-01-26T17:18:27.606Z,0.70
2023-01-26T17:21:02.609Z,0.70
2023-01-26T17:23:33.957Z,0.70
2023-01-26T17:26:03.702Z,0.80
2023-01-26T17:28:32.364Z,0.80
2023-01-26T17:31:01.552Z,0.80
2023-01-26T17:33:30.349Z,0.90
2023-01-26T17:36:02.610Z,0.90
2023-01-26T17:38:32.953Z,0.90
2023-01-26T17:41:01.302Z,0.90
2023-01-26T17:43:31.813Z,0.70
2023-01-26T17:46:06.573Z,0.80
2023-01-26T17:48:37.996Z,0.80
2023-01-26T17:51:08.192Z,0.80
2023-01-26T17:53:40.187Z,0.90
2023-01-26T17:56:11.234Z,0.90
2023-01-26T17:58:40.403Z,0.80
2023-01-26T18:01:11.346Z,0.80
2023-01-26T18:03:43.118Z,0.80
2023-01-26T18:06:12.731Z,0.80
2023-01-26T18:08:43.022Z,0.70
2023-01-26T18:11:14.400Z,0.70
2023-01-26T18:13:44.427Z,0.70
2023-01-26T18:16:16.935Z,0.70
2023-01-26T18:18:46.410Z,0.70
2023-01-26T18:21:18.172Z,0.80
2023-01-26T18:23:51.170Z,0.70
2023-01-26T18:26:22.647Z,0.80
2023-01-26T18:28:51.890Z,0.70
2023-01-26T18:31:26.317Z,0.80
2023-01-26T18:33:56.665Z,1.20
2023-01-26T18:36:26.603Z,0.80
2023-01-26T18:39:00.770Z,0.80
2023-01-26T18:41:33.796Z,0.80
2023-01-26T18:44:04.076Z,0.80
2023-01-26T18:46:32.471Z,0.80
2023-01-26T18:49:03.844Z,0.70
2023-01-26T18:51:35.624Z,0.70
2023-01-26T18:54:06.026Z,0.80
2023-01-26T18:56:36.288Z,0.80
2023-01-26T18:59:06.506Z,0.80
2023-01-26T19:01:34.725Z,0.70
2023-01-26T19:04:04.110Z,1.30
2023-01-26T19:06:36.347Z,0.80
2023-01-26T19:09:09.342Z,0.80
2023-01-26T19:11:40.078Z,0.70
2023-01-26T19:14:10.777Z,0.70
2023-01-26T19:16:39.065Z,0.70
2023-01-26T19:19:09.007Z,0.80
2023-01-26T19:21:37.238Z,0.80
2023-01-26T19:24:08.118Z,0.80
2023-01-26T19:26:36.344Z,0.80
2023-01-26T19:29:05.133Z,0.80
2023-01-26T19:31:34.056Z,0.70
2023-01-26T19:34:06.441Z,0.80
2023-01-26T19:36:37.506Z,0.80
2023-01-26T19:39:07.895Z,0.90
2023-01-26T19:41:38.755Z,0.90
2023-01-26T19:44:07.531Z,0.90
2023-01-26T19:46:35.699Z,0.90
2023-01-26T19:49:05.002Z,1.00
2023-01-26T19:51:33.771Z,1.00
2023-01-26T19:54:02.461Z,0.90
2023-01-26T19:56:36.069Z,0.90
2023-01-26T19:59:08.556Z,0.90
2023-01-26T20:01:37.756Z,0.80
2023-01-26T20:04:10.575Z,0.80
2023-01-26T20:06:39.819Z,0.70
2023-01-26T20:09:09.684Z,0.80
2023-01-26T20:11:39.441Z,0.70
2023-01-26T20:14:11.895Z,0.70
2023-01-26T20:16:40.535Z,0.70
2023-01-26T20:19:08.872Z,0.60
2023-01-26T20:21:38.805Z,0.60
2023-01-26T20:24:08.657Z,0.70
2023-01-26T20:26:38.447Z,0.60
2023-01-26T20:29:07.048Z,0.70
2023-01-26T20:31:35.362Z,0.70
2023-01-26T20:34:03.672Z,0.70
2023-01-26T20:36:34.319Z,0.70
2023-01-26T20:39:02.782Z,0.70
2023-01-26T20:41:33.762Z,0.70
2023-01-26T20:44:06.940Z,0.60
2023-01-26T20:46:39.149Z,0.60
2023-01-26T20:49:13.678Z,0.60
2023-01-26T20:51:45.736Z,0.60
2023-01-26T20:54:16.680Z,0.70
2023-01-26T20:56:47.021Z,0.70
2023-01-26T20:59:28.379Z,0.60
2023-01-26T21:01:57.265Z,0.60
2023-01-26T21:04:25.714Z,0.60
2023-01-26T21:06:58.164Z,0.60
2023-01-26T21:09:26.698Z,0.70
2023-01-26T21:11:55.297Z,0.70
2023-01-26T21:14:24.907Z,0.80
2023-01-26T21:16:53.587Z,0.70
2023-01-26T21:19:22.857Z,0.70
2023-01-26T21:21:51.673Z,0.80
2023-01-26T21:24:20.923Z,0.80
2023-01-26T21:26:49.203Z,0.80
2023-01-26T21:29:18.295Z,1.40
2023-01-26T21:31:49.262Z,0.70
2023-01-26T21:34:18.259Z,0.70
2023-01-26T21:36:47.254Z,0.70
2023-01-26T21:39:15.945Z,0.70
2023-01-26T21:41:58.334Z,0.80
2023-01-26T21:44:28.816Z,0.80
2023-01-26T21:47:01.578Z,0.80
2023-01-26T21:49:30.233Z,0.80
2023-01-26T21:52:16.995Z,0.80
2023-01-26T21:54:45.210Z,0.80
2023-01-26T21:57:31.362Z,0.90
2023-01-26T21:59:59.552Z,0.80
2023-01-26T22:02:29.423Z,0.80
2023-01-26T22:04:57.599Z,0.90
2023-01-26T22:07:28.068Z,0.80
2023-01-26T22:09:56.604Z,0.70
2023-01-26T22:12:24.962Z,0.80
2023-01-26T22:14:53.545Z,0.90
2023-01-26T22:17:21.849Z,0.70
2023-01-26T22:19:53.358Z,0.70
2023-01-26T22:22:21.598Z,0.80
2023-01-26T22:24:49.947Z,1.10
2023-01-26T22:27:18.167Z,0.80
2023-01-26T22:29:46.473Z,0.80
2023-01-26T22:32:15.159Z,0.80
2023-01-26T22:34:43.796Z,0.80
2023-01-26T22:37:14.179Z,0.80
2023-01-26T22:39:43.169Z,0.90
2023-01-26T22:42:11.376Z,0.90
2023-01-26T22:44:40.010Z,0.90
2023-01-26T22:47:08.248Z,0.80
2023-01-26T22:49:36.466Z,0.90
2023-01-26T22:52:09.258Z,0.80
2023-01-26T22:54:38.841Z,0.90
2023-01-26T22:57:10.909Z,0.70
2023-01-26T22:59:39.248Z,0.60
2023-01-26T23:02:07.477Z,0.60
2023-01-26T23:04:36.739Z,0.70
2023-01-26T23:07:04.965Z,0.70
2023-01-26T23:09:34.088Z,0.60
2023-01-26T23:12:05.188Z,0.60
2023-01-26T23:14:35.056Z,0.70
2023-01-26T23:17:04.823Z,0.60
2023-01-26T23:19:33.649Z,0.70
2023-01-26T23:22:02.187Z,0.70
2023-01-26T23:24:31.062Z,0.70
2023-01-26T23:26:59.489Z,0.70
2023-01-26T23:29:32.073Z,0.70
2023-01-26T23:32:00.704Z,0.70
2023-01-26T23:34:29.293Z,0.80
2023-01-26T23:36:58.129Z,0.80
2023-01-26T23:39:26.364Z,0.80
2023-01-26T23:41:55.463Z,0.80
2023-01-26T23:44:23.653Z,0.70
2023-01-26T23:46:53.825Z,0.60
2023-01-26T23:49:22.667Z,0.70
2023-01-26T23:51:51.306Z,0.60
2023-01-26T23:54:20.175Z,0.50
2023-01-26T23:56:49.275Z,0.50
2023-01-26T23:59:18.215Z,0.60
